Time;durP1;ratioP1;P1;durP2;ratioP2;P2;SDS_P1;SDS_P2;PMS_P1;PMS_P2;Temp;Humidity;BMP_temperature;BMP_pressure;BME280_temperature;BME280_humidity;BME280_pressure;Samples;Min_cycle;Max_cycle;Signal;HPM_P1;HPM_P2
2023/01/10 00:02:17;;;;;;;3.65;0.60;;;;;;;;;;5021536;28;20041;-68
2023/01/10 00:04:42;;;;;;;0.70;0.70;;;;;;;;;;5019824;28;20049;-69
2023/01/10 00:07:07;;;;;;;0.82;0.82;;;;;;;;;;5020814;28;20111;-67
2023/01/10 00:09:33;;;;;;;1.20;1.10;;;;;;;;;;5019880;28;20049;-69
2023/01/10 00:14:43;;;;;;;1.08;1.08;;;;;;;;;;5020904;28;20045;-68
2023/01/10 00:17:08;;;;;;;1.67;1.38;;;;;;;;;;5019698;28;20075;-68
2023/01/10 00:19:33;;;;;;;0.90;0.90;;;;;;;;;;5018746;28;20076;-68
2023/01/10 00:22:07;;;;;;;1.42;1.10;;;;;;;;;;5021060;28;20128;-66
2023/01/10 00:24:32;;;;;;;1.40;1.30;;;;;;;;;;5020466;28;20498;-67
2023/01/10 00:26:58;;;;;;;1.02;1.02;;;;;;;;;;5020258;28;20076;-68
2023/01/10 00:29:26;;;;;;;1.17;1.08;;;;;;;;;;5019348;28;20532;-68
2023/01/10 00:31:52;;;;;;;1.30;1.20;;;;;;;;;;5020625;28;21084;-68
2023/01/10 00:34:18;;;;;;;1.88;1.73;;;;;;;;;;5020887;28;20057;-68
2023/01/10 00:36:46;;;;;;;1.35;1.25;;;;;;;;;;5020258;28;20816;-68
2023/01/10 00:39:12;;;;;;;1.25;1.23;;;;;;;;;;5018255;28;20397;-66
2023/01/10 00:44:23;;;;;;;1.17;1.08;;;;;;;;;;5020740;28;20056;-66
2023/01/10 00:46:48;;;;;;;1.15;1.10;;;;;;;;;;5020509;28;20059;-68
2023/01/10 00:49:15;;;;;;;2.20;1.48;;;;;;;;;;5017895;28;20041;-69
2023/01/10 00:51:41;;;;;;;2.65;1.60;;;;;;;;;;5020486;28;20502;-68
2023/01/10 00:54:11;;;;;;;1.80;1.17;;;;;;;;;;5020083;28;20564;-69
2023/01/10 00:56:37;;;;;;;1.02;0.93;;;;;;;;;;5020296;28;20056;-68
2023/01/10 00:59:03;;;;;;;1.83;1.58;;;;;;;;;;5019070;28;20037;-67
2023/01/10 01:01:29;;;;;;;1.80;1.67;;;;;;;;;;5019519;28;20077;-68
2023/01/10 01:03:54;;;;;;;0.80;0.80;;;;;;;;;;5019961;28;20137;-66
2023/01/10 01:06:19;;;;;;;1.20;1.13;;;;;;;;;;5019419;28;20061;-68
2023/01/10 01:08:45;;;;;;;4.68;1.48;;;;;;;;;;5017492;28;20045;-68
2023/01/10 01:11:10;;;;;;;1.13;1.10;;;;;;;;;;5031967;28;20466;-68
2023/01/10 01:13:36;;;;;;;3.33;1.25;;;;;;;;;;5017225;28;20045;-67
2023/01/10 01:16:01;;;;;;;1.17;1.05;;;;;;;;;;5021116;28;20088;-68
2023/01/10 01:18:27;;;;;;;1.52;1.33;;;;;;;;;;5021026;28;20044;-68
2023/01/10 01:20:55;;;;;;;3.30;1.48;;;;;;;;;;5023544;28;20556;-68
2023/01/10 01:23:21;;;;;;;2.42;1.17;;;;;;;;;;5023929;28;20477;-67
2023/01/10 01:25:49;;;;;;;4.70;1.77;;;;;;;;;;5024265;28;20045;-67
2023/01/10 01:28:15;;;;;;;1.77;1.63;;;;;;;;;;5023213;28;20127;-68
2023/01/10 01:30:40;;;;;;;1.40;1.30;;;;;;;;;;5022920;28;20132;-67
2023/01/10 01:33:06;;;;;;;2.40;1.58;;;;;;;;;;5023522;28;20052;-68
2023/01/10 01:35:32;;;;;;;1.60;1.50;;;;;;;;;;5038868;28;20049;-66
2023/01/10 01:37:57;;;;;;;1.45;1.30;;;;;;;;;;5024374;28;20045;-67
2023/01/10 01:40:23;;;;;;;2.00;1.90;;;;;;;;;;5022171;28;20060;-67
2023/01/10 01:42:54;;;;;;;1.48;1.13;;;;;;;;;;5024337;28;20037;-66
2023/01/10 01:45:22;;;;;;;3.45;1.98;;;;;;;;;;5023596;28;20064;-66
2023/01/10 01:47:48;;;;;;;1.60;1.50;;;;;;;;;;5039206;28;20068;-66
2023/01/10 01:50:39;;;;;;;3.15;1.48;;;;;;;;;;5022895;28;20049;-66
2023/01/10 01:53:12;;;;;;;2.22;1.90;;;;;;;;;;5023343;28;20042;-65
2023/01/10 01:55:38;;;;;;;3.35;2.10;;;;;;;;;;5022994;28;20045;-64
2023/01/10 01:58:11;;;;;;;2.60;1.90;;;;;;;;;;5022351;28;20049;-65
2023/01/10 02:00:36;;;;;;;2.17;1.85;;;;;;;;;;5023111;28;20041;-65
2023/01/10 02:03:04;;;;;;;2.03;1.60;;;;;;;;;;5022134;28;20044;-65
2023/01/10 02:05:32;;;;;;;1.95;1.40;;;;;;;;;;5023548;28;20589;-65
2023/01/10 02:08:00;;;;;;;2.53;1.92;;;;;;;;;;5023695;28;20046;-64
2023/01/10 02:10:59;;;;;;;4.57;1.85;;;;;;;;;;5023350;28;20103;-65
2023/01/10 02:13:26;;;;;;;1.48;1.38;;;;;;;;;;5022655;28;20060;-64
2023/01/10 02:15:52;;;;;;;2.30;1.60;;;;;;;;;;5023527;28;20050;-64
2023/01/10 02:18:19;;;;;;;1.50;1.40;;;;;;;;;;5023509;28;20048;-66
2023/01/10 02:21:03;;;;;;;2.88;1.40;;;;;;;;;;5022985;28;20041;-66
2023/01/10 02:23:40;;;;;;;2.40;1.50;;;;;;;;;;5022705;28;20045;-65
2023/01/10 02:26:16;;;;;;;2.67;1.15;;;;;;;;;;5023292;28;20660;-65
2023/01/10 02:29:12;;;;;;;4.10;1.00;;;;;;;;;;5023386;28;20075;-64
2023/01/10 02:32:01;;;;;;;1.52;1.20;;;;;;;;;;5051486;28;20777;-66
2023/01/10 02:34:41;;;;;;;4.18;1.90;;;;;;;;;;5037306;28;20102;-66
2023/01/10 02:37:14;;;;;;;2.15;1.70;;;;;;;;;;5022899;28;20053;-66
2023/01/10 02:39:48;;;;;;;1.35;1.05;;;;;;;;;;5022186;28;20516;-66
2023/01/10 02:42:32;;;;;;;1.50;1.40;;;;;;;;;;5023256;28;20033;-66
2023/01/10 02:45:08;;;;;;;2.17;1.38;;;;;;;;;;5031576;28;20048;-65
2023/01/10 02:47:43;;;;;;;2.72;1.73;;;;;;;;;;5051543;28;20414;-66
2023/01/10 02:50:27;;;;;;;0.77;0.77;;;;;;;;;;5037537;28;20053;-66
2023/01/10 02:52:52;;;;;;;1.40;1.30;;;;;;;;;;5022631;28;20060;-66
2023/01/10 02:55:21;;;;;;;0.88;0.88;;;;;;;;;;5022432;28;20045;-66
2023/01/10 02:58:00;;;;;;;0.77;0.77;;;;;;;;;;5022041;28;20195;-65
2023/01/10 03:00:37;;;;;;;3.53;1.50;;;;;;;;;;5022057;28;20061;-66
2023/01/10 03:03:03;;;;;;;1.67;1.48;;;;;;;;;;5022436;28;20053;-67
2023/01/10 03:05:49;;;;;;;2.88;1.30;;;;;;;;;;5030671;28;20141;-66
2023/01/10 03:08:25;;;;;;;2.50;1.55;;;;;;;;;;5022234;28;20482;-66
2023/01/10 03:10:58;;;;;;;1.63;1.30;;;;;;;;;;5021432;28;20057;-66
2023/01/10 03:13:36;;;;;;;3.33;1.70;;;;;;;;;;5022270;28;20056;-67
2023/01/10 03:16:04;;;;;;;4.90;1.65;;;;;;;;;;5022970;28;20041;-66
2023/01/10 03:18:40;;;;;;;3.67;1.40;;;;;;;;;;5022382;28;20075;-66
2023/01/10 03:21:08;;;;;;;2.70;1.50;;;;;;;;;;5021319;28;20049;-66
2023/01/10 03:23:34;;;;;;;3.88;1.33;;;;;;;;;;5022871;28;20413;-66
2023/01/10 03:26:00;;;;;;;2.67;0.90;;;;;;;;;;5022732;28;20041;-66
2023/01/10 03:28:58;;;;;;;1.50;0.98;;;;;;;;;;5022772;28;20045;-65
2023/01/10 03:31:35;;;;;;;1.00;0.90;;;;;;;;;;5016193;28;20049;-66
2023/01/10 03:34:01;;;;;;;2.80;1.10;;;;;;;;;;5022638;28;20060;-67
2023/01/10 03:36:27;;;;;;;1.10;0.90;;;;;;;;;;5022005;28;20048;-66
2023/01/10 03:39:01;;;;;;;1.80;1.08;;;;;;;;;;5021950;28;20053;-66
2023/01/10 03:41:40;;;;;;;1.27;1.15;;;;;;;;;;5021191;28;20049;-66
2023/01/10 03:47:18;;;;;;;3.17;1.27;;;;;;;;;;5021792;28;20041;-66
2023/01/10 03:49:47;;;;;;;3.22;1.33;;;;;;;;;;5021562;28;20049;-66
2023/01/10 03:52:16;;;;;;;1.38;1.00;;;;;;;;;;5021442;28;20049;-66
2023/01/10 03:54:43;;;;;;;1.88;1.38;;;;;;;;;;5021228;28;20045;-63
2023/01/10 03:57:15;;;;;;;3.03;1.10;;;;;;;;;;5021324;28;20041;-66
2023/01/10 03:59:40;;;;;;;1.33;0.90;;;;;;;;;;5020752;28;20091;-64
2023/01/10 04:02:06;;;;;;;3.78;1.33;;;;;;;;;;5016858;28;20874;-64
2023/01/10 04:04:31;;;;;;;1.95;0.80;;;;;;;;;;5020552;28;20049;-64
2023/01/10 04:06:56;;;;;;;2.05;0.93;;;;;;;;;;5021401;28;20041;-67
2023/01/10 04:09:22;;;;;;;1.33;1.10;;;;;;;;;;5018807;28;20049;-66
2023/01/10 04:11:47;;;;;;;2.33;1.35;;;;;;;;;;5021307;28;20053;-66
2023/01/10 04:14:13;;;;;;;1.23;1.15;;;;;;;;;;5021169;28;20837;-67
2023/01/10 04:16:38;;;;;;;0.93;0.93;;;;;;;;;;5022393;28;20049;-67
2023/01/10 04:19:04;;;;;;;1.20;1.00;;;;;;;;;;5021567;28;20041;-67
2023/01/10 04:21:29;;;;;;;1.58;1.13;;;;;;;;;;5015204;28;20064;-66
2023/01/10 04:23:54;;;;;;;1.30;1.20;;;;;;;;;;5027016;28;20048;-66
2023/01/10 04:26:20;;;;;;;0.82;0.80;;;;;;;;;;5021703;28;20441;-67
2023/01/10 04:28:45;;;;;;;4.28;1.40;;;;;;;;;;5021632;28;20403;-65
2023/01/10 04:31:11;;;;;;;2.55;1.25;;;;;;;;;;5020361;28;20087;-66
2023/01/10 04:33:37;;;;;;;1.42;1.33;;;;;;;;;;5021451;28;20049;-66
2023/01/10 04:36:03;;;;;;;0.90;0.90;;;;;;;;;;5020458;28;20118;-66
2023/01/10 04:38:28;;;;;;;1.08;1.08;;;;;;;;;;5020719;28;20437;-65
2023/01/10 04:40:55;;;;;;;1.40;1.30;;;;;;;;;;5019876;28;20179;-66
2023/01/10 04:43:22;;;;;;;1.30;1.20;;;;;;;;;;5018971;28;20116;-66
2023/01/10 04:45:48;;;;;;;1.63;1.52;;;;;;;;;;5019682;28;20136;-66
2023/01/10 04:48:13;;;;;;;1.10;1.00;;;;;;;;;;5019100;28;20140;-66
2023/01/10 04:50:39;;;;;;;1.58;1.17;;;;;;;;;;5018567;28;20129;-67
2023/01/10 04:53:04;;;;;;;1.90;1.50;;;;;;;;;;5033646;28;20049;-65
2023/01/10 04:55:31;;;;;;;1.58;1.48;;;;;;;;;;5020079;28;20049;-66
2023/01/10 04:57:56;;;;;;;3.80;1.70;;;;;;;;;;5019102;28;20045;-66
2023/01/10 05:00:22;;;;;;;3.15;1.92;;;;;;;;;;5019554;28;20045;-65
2023/01/10 05:02:47;;;;;;;1.63;1.50;;;;;;;;;;5020234;28;20076;-68
2023/01/10 05:05:13;;;;;;;2.55;1.50;;;;;;;;;;5019194;28;21082;-68
2023/01/10 05:07:39;;;;;;;2.67;1.52;;;;;;;;;;5020004;28;20099;-69
2023/01/10 05:10:06;;;;;;;2.33;2.13;;;;;;;;;;5017933;28;20060;-69
2023/01/10 05:12:32;;;;;;;3.33;1.80;;;;;;;;;;5019543;28;20494;-68
2023/01/10 05:14:58;;;;;;;2.15;1.98;;;;;;;;;;5018166;28;20099;-68
2023/01/10 05:17:23;;;;;;;2.05;1.85;;;;;;;;;;5018023;28;20061;-68
2023/01/10 05:19:49;;;;;;;1.90;1.67;;;;;;;;;;5017421;28;20060;-69
2023/01/10 05:22:14;;;;;;;1.80;1.70;;;;;;;;;;5034953;28;20406;-69
2023/01/10 05:24:40;;;;;;;2.05;1.92;;;;;;;;;;5034020;28;20045;-70
2023/01/10 05:27:06;;;;;;;5.10;2.33;;;;;;;;;;5016909;28;20513;-69
2023/01/10 05:29:32;;;;;;;1.73;1.63;;;;;;;;;;5019145;28;20072;-69
2023/01/10 05:31:57;;;;;;;2.35;2.15;;;;;;;;;;5018630;28;20049;-70
2023/01/10 05:34:23;;;;;;;4.03;2.35;;;;;;;;;;5033613;28;20053;-69
2023/01/10 05:36:48;;;;;;;1.42;1.33;;;;;;;;;;5018749;28;20115;-70
2023/01/10 05:39:14;;;;;;;2.80;1.95;;;;;;;;;;5032717;28;20152;-70
2023/01/10 05:41:39;;;;;;;1.92;1.73;;;;;;;;;;5033595;28;20148;-69
2023/01/10 05:44:05;;;;;;;3.10;2.60;;;;;;;;;;5021217;28;20616;-69
2023/01/10 05:46:31;;;;;;;2.65;2.13;;;;;;;;;;5020194;28;20045;-70
2023/01/10 05:48:56;;;;;;;4.50;2.67;;;;;;;;;;5020464;28;20037;-69
2023/01/10 05:51:22;;;;;;;4.65;2.78;;;;;;;;;;5018256;28;20098;-69
2023/01/10 05:53:47;;;;;;;3.47;3.05;;;;;;;;;;5034643;28;20308;-70
2023/01/10 05:56:13;;;;;;;3.10;2.70;;;;;;;;;;5018576;28;20117;-68
2023/01/10 05:58:38;;;;;;;4.15;3.28;;;;;;;;;;5018761;28;20107;-69
2023/01/10 06:01:03;;;;;;;2.45;1.90;;;;;;;;;;5018230;28;20053;-69
2023/01/10 06:03:29;;;;;;;3.22;2.30;;;;;;;;;;5021589;28;20056;-69
2023/01/10 06:05:55;;;;;;;3.08;2.72;;;;;;;;;;5016680;28;20570;-68
2023/01/10 06:08:21;;;;;;;3.75;3.03;;;;;;;;;;5021296;28;20135;-68
2023/01/10 06:10:46;;;;;;;3.13;2.75;;;;;;;;;;5018780;28;20468;-68
2023/01/10 06:13:12;;;;;;;4.00;3.20;;;;;;;;;;5021924;28;20812;-68
2023/01/10 06:15:37;;;;;;;2.78;1.95;;;;;;;;;;5018769;28;20076;-67
2023/01/10 06:18:03;;;;;;;3.40;1.75;;;;;;;;;;5021079;28;20045;-68
2023/01/10 06:20:29;;;;;;;4.30;3.35;;;;;;;;;;5020106;28;20041;-67
2023/01/10 06:22:55;;;;;;;4.00;2.90;;;;;;;;;;5019408;28;20064;-69
2023/01/10 06:25:21;;;;;;;2.13;1.90;;;;;;;;;;5017179;28;20414;-67
2023/01/10 06:27:46;;;;;;;4.13;3.50;;;;;;;;;;5020467;28;20046;-67
2023/01/10 06:30:13;;;;;;;4.00;2.97;;;;;;;;;;5021081;28;20080;-68
2023/01/10 06:32:39;;;;;;;2.75;2.40;;;;;;;;;;5022336;28;20506;-68
2023/01/10 06:35:05;;;;;;;2.00;1.77;;;;;;;;;;5021585;28;20147;-67
2023/01/10 06:37:31;;;;;;;4.45;3.17;;;;;;;;;;5022327;28;20463;-67
2023/01/10 06:39:57;;;;;;;4.20;3.60;;;;;;;;;;5021122;28;20154;-68
2023/01/10 06:42:23;;;;;;;3.03;2.70;;;;;;;;;;5022637;28;20076;-68
2023/01/10 06:44:48;;;;;;;2.40;2.20;;;;;;;;;;5022403;28;20136;-68
2023/01/10 06:47:13;;;;;;;2.03;1.83;;;;;;;;;;5020926;28;20057;-68
2023/01/10 06:49:39;;;;;;;3.45;2.47;;;;;;;;;;5020921;28;20395;-70
2023/01/10 06:52:04;;;;;;;3.75;2.88;;;;;;;;;;5022523;28;20053;-69
2023/01/10 06:54:30;;;;;;;3.15;1.70;;;;;;;;;;5022446;28;20075;-68
2023/01/10 06:56:55;;;;;;;2.13;1.35;;;;;;;;;;5030298;28;20057;-68
2023/01/10 06:59:21;;;;;;;2.15;1.95;;;;;;;;;;5018387;28;20111;-68
2023/01/10 07:01:46;;;;;;;1.95;1.73;;;;;;;;;;5021455;28;20214;-68
2023/01/10 07:04:12;;;;;;;1.35;1.25;;;;;;;;;;5036635;28;20144;-68
2023/01/10 07:06:37;;;;;;;2.08;1.98;;;;;;;;;;5021895;28;20041;-69
2023/01/10 07:09:05;;;;;;;1.40;1.30;;;;;;;;;;5021544;28;20056;-69
2023/01/10 07:11:30;;;;;;;2.28;2.08;;;;;;;;;;5019772;28;20052;-69
2023/01/10 07:13:56;;;;;;;3.47;2.80;;;;;;;;;;5020115;28;20045;-69
2023/01/10 07:16:21;;;;;;;3.13;2.83;;;;;;;;;;5021566;28;20046;-71
2023/01/10 07:18:47;;;;;;;2.13;1.92;;;;;;;;;;5036692;28;20048;-68
2023/01/10 07:21:12;;;;;;;3.63;2.20;;;;;;;;;;5018792;28;20052;-69
2023/01/10 07:23:38;;;;;;;2.53;2.30;;;;;;;;;;5019387;28;20104;-68
2023/01/10 07:26:06;;;;;;;4.00;2.10;;;;;;;;;;5020927;28;20053;-68
2023/01/10 07:28:33;;;;;;;2.97;2.65;;;;;;;;;;5021004;28;20075;-68
2023/01/10 07:31:04;;;;;;;4.50;3.40;;;;;;;;;;5019897;28;20049;-69
2023/01/10 07:33:30;;;;;;;4.53;3.17;;;;;;;;;;5018809;28;20068;-69
2023/01/10 07:35:56;;;;;;;4.60;3.00;;;;;;;;;;5020661;28;20045;-69
2023/01/10 07:38:21;;;;;;;1.95;1.75;;;;;;;;;;5021124;28;20042;-69
2023/01/10 07:40:47;;;;;;;6.07;2.90;;;;;;;;;;5019147;28;20052;-69
2023/01/10 07:43:13;;;;;;;2.78;2.55;;;;;;;;;;5018335;28;20045;-69
2023/01/10 07:45:38;;;;;;;2.80;2.42;;;;;;;;;;5018342;28;20052;-69
2023/01/10 07:48:04;;;;;;;2.40;2.20;;;;;;;;;;5021030;28;20042;-69
2023/01/10 07:50:33;;;;;;;4.30;2.80;;;;;;;;;;5035881;28;20601;-69
2023/01/10 07:52:59;;;;;;;1.90;1.80;;;;;;;;;;5020506;28;20041;-68
2023/01/10 07:55:26;;;;;;;2.97;2.20;;;;;;;;;;5018700;28;20061;-68
2023/01/10 07:57:52;;;;;;;3.45;2.25;;;;;;;;;;5020336;28;20073;-69
2023/01/10 08:00:18;;;;;;;1.63;1.52;;;;;;;;;;5020215;28;20864;-69
2023/01/10 08:02:44;;;;;;;2.35;2.15;;;;;;;;;;5019592;28;20048;-68
2023/01/10 08:05:10;;;;;;;1.95;1.85;;;;;;;;;;5018326;28;20054;-69
2023/01/10 08:07:36;;;;;;;2.35;2.15;;;;;;;;;;5019809;28;20107;-69
2023/01/10 08:10:03;;;;;;;2.33;2.13;;;;;;;;;;5020086;28;20041;-69
2023/01/10 08:12:29;;;;;;;3.15;2.55;;;;;;;;;;5019659;28;20041;-69
2023/01/10 08:14:54;;;;;;;2.45;2.25;;;;;;;;;;5020439;28;20195;-69
2023/01/10 08:17:20;;;;;;;3.22;2.88;;;;;;;;;;5018135;28;20053;-69
2023/01/10 08:19:45;;;;;;;3.75;3.45;;;;;;;;;;5019483;28;20153;-69
2023/01/10 08:22:11;;;;;;;5.22;3.20;;;;;;;;;;5019611;28;20057;-69
2023/01/10 08:24:37;;;;;;;3.55;3.13;;;;;;;;;;5034511;28;20041;-69
2023/01/10 08:27:02;;;;;;;4.30;3.38;;;;;;;;;;5018497;28;20397;-74
2023/01/10 08:29:28;;;;;;;3.40;3.00;;;;;;;;;;5019000;28;20483;-70
2023/01/10 08:31:54;;;;;;;3.28;2.28;;;;;;;;;;5018736;28;20059;-70
2023/01/10 08:34:19;;;;;;;3.90;2.75;;;;;;;;;;5021208;28;20095;-70
2023/01/10 08:36:49;;;;;;;3.92;3.53;;;;;;;;;;5035601;28;20048;-70
2023/01/10 08:39:14;;;;;;;3.17;2.88;;;;;;;;;;5018474;28;20052;-69
2023/01/10 08:41:40;;;;;;;2.78;2.58;;;;;;;;;;5033510;28;20045;-70
2023/01/10 08:44:05;;;;;;;3.95;3.03;;;;;;;;;;5020335;28;20046;-69
2023/01/10 08:46:31;;;;;;;2.17;2.03;;;;;;;;;;5018345;28;20514;-69
2023/01/10 08:48:56;;;;;;;2.47;2.25;;;;;;;;;;5018931;28;20123;-69
2023/01/10 08:51:22;;;;;;;4.63;2.67;;;;;;;;;;5017841;28;20073;-68
2023/01/10 08:53:47;;;;;;;3.50;2.28;;;;;;;;;;5018999;28;20060;-69
2023/01/10 08:56:13;;;;;;;2.75;2.50;;;;;;;;;;5019718;28;20140;-70
2023/01/10 08:58:38;;;;;;;3.40;2.22;;;;;;;;;;5018888;28;20053;-70
2023/01/10 09:01:05;;;;;;;3.53;2.63;;;;;;;;;;5031758;28;20050;-68
2023/01/10 09:03:31;;;;;;;5.25;2.28;;;;;;;;;;5018602;28;20045;-68
2023/01/10 09:05:58;;;;;;;3.42;2.85;;;;;;;;;;5019587;28;20060;-69
2023/01/10 09:08:24;;;;;;;4.05;3.00;;;;;;;;;;5019723;28;20041;-68
2023/01/10 09:10:49;;;;;;;5.07;3.13;;;;;;;;;;5018747;28;20060;-69
2023/01/10 09:13:15;;;;;;;4.20;2.92;;;;;;;;;;5018578;28;20052;-68
2023/01/10 09:15:42;;;;;;;6.50;3.28;;;;;;;;;;5020050;28;20114;-69
2023/01/10 09:18:09;;;;;;;4.75;2.63;;;;;;;;;;5035406;28;20111;-70
2023/01/10 09:20:36;;;;;;;5.35;3.20;;;;;;;;;;5019341;28;20044;-69
2023/01/10 09:23:09;;;;;;;3.85;2.53;;;;;;;;;;5018650;28;20037;-68
2023/01/10 09:25:35;;;;;;;2.72;1.88;;;;;;;;;;5039657;28;20037;-69
2023/01/10 09:28:02;;;;;;;1.90;1.70;;;;;;;;;;5020226;28;20402;-69
2023/01/10 09:30:29;;;;;;;3.83;3.28;;;;;;;;;;5019169;28;20060;-69
2023/01/10 09:32:55;;;;;;;2.38;2.17;;;;;;;;;;5018274;28;20042;-70
2023/01/10 09:35:22;;;;;;;2.47;1.95;;;;;;;;;;5019464;28;20091;-68
2023/01/10 09:37:47;;;;;;;6.50;2.65;;;;;;;;;;5023071;28;20648;-68
2023/01/10 09:40:21;;;;;;;1.55;1.45;;;;;;;;;;5023335;28;20065;-68
2023/01/10 09:43:14;;;;;;;4.63;2.33;;;;;;;;;;5023082;28;20049;-68
2023/01/10 09:45:52;;;;;;;2.83;2.60;;;;;;;;;;5046185;28;20099;-68
2023/01/10 09:48:30;;;;;;;4.57;2.10;;;;;;;;;;5023731;28;20056;-68
2023/01/10 09:51:03;;;;;;;5.85;2.40;;;;;;;;;;5022913;28;20502;-68
2023/01/10 09:53:33;;;;;;;5.45;2.20;;;;;;;;;;5021694;28;20049;-69
2023/01/10 09:56:00;;;;;;;3.15;1.70;;;;;;;;;;5023026;28;20967;-69
2023/01/10 09:58:29;;;;;;;4.50;2.20;;;;;;;;;;5023206;28;20037;-68
2023/01/10 10:00:59;;;;;;;1.75;1.60;;;;;;;;;;5022316;28;20513;-69
2023/01/10 10:03:30;;;;;;;3.85;2.08;;;;;;;;;;5021721;28;20783;-68
2023/01/10 10:05:56;;;;;;;6.28;1.58;;;;;;;;;;5037675;28;20061;-68
2023/01/10 10:08:22;;;;;;;2.65;1.27;;;;;;;;;;5023170;28;20095;-69
2023/01/10 10:11:26;;;;;;;2.92;1.38;;;;;;;;;;5021692;28;20083;-69
2023/01/10 10:14:19;;;;;;;3.85;1.60;;;;;;;;;;5044937;28;20049;-69
2023/01/10 10:17:10;;;;;;;2.60;1.48;;;;;;;;;;5021877;28;20037;-69
2023/01/10 10:20:12;;;;;;;2.05;1.65;;;;;;;;;;5047772;28;20136;-69
2023/01/10 10:22:52;;;;;;;2.72;1.45;;;;;;;;;;5036665;28;20820;-68
2023/01/10 10:25:49;;;;;;;1.48;0.93;;;;;;;;;;5022801;28;20056;-68
2023/01/10 10:28:45;;;;;;;2.67;1.80;;;;;;;;;;5021988;28;20053;-69
2023/01/10 10:31:39;;;;;;;6.57;3.10;;;;;;;;;;5021630;28;20479;-69
2023/01/10 10:34:25;;;;;;;1.90;1.33;;;;;;;;;;5022808;28;20053;-69
2023/01/10 10:36:59;;;;;;;4.07;1.70;;;;;;;;;;5022660;28;20048;-67
2023/01/10 10:39:37;;;;;;;3.55;1.95;;;;;;;;;;5027351;28;20406;-68
2023/01/10 10:42:09;;;;;;;4.78;2.20;;;;;;;;;;5022020;28;20835;-68
2023/01/10 10:44:38;;;;;;;4.47;2.20;;;;;;;;;;5020936;28;20555;-68
2023/01/10 10:47:14;;;;;;;7.40;2.10;;;;;;;;;;5022880;28;20041;-69
2023/01/10 10:49:52;;;;;;;6.50;1.90;;;;;;;;;;5044596;28;20045;-68
2023/01/10 10:52:24;;;;;;;4.15;2.10;;;;;;;;;;5022305;28;20486;-68
2023/01/10 10:54:50;;;;;;;2.65;2.08;;;;;;;;;;5021874;28;20631;-68
2023/01/10 10:57:16;;;;;;;3.83;2.20;;;;;;;;;;5022148;28;20045;-68
2023/01/10 10:59:45;;;;;;;6.20;2.15;;;;;;;;;;5022138;28;20498;-68
2023/01/10 11:02:22;;;;;;;5.57;2.60;;;;;;;;;;5020956;28;20068;-69
2023/01/10 11:04:51;;;;;;;2.70;2.05;;;;;;;;;;5021697;28;20052;-69
2023/01/10 11:07:17;;;;;;;4.55;2.00;;;;;;;;;;5021992;28;20041;-68
2023/01/10 11:12:24;;;;;;;5.70;1.80;;;;;;;;;;5036089;28;20041;-68
2023/01/10 11:14:50;;;;;;;2.75;1.27;;;;;;;;;;5021244;28;20140;-68
2023/01/10 11:17:30;;;;;;;7.13;2.28;;;;;;;;;;5021516;28;20056;-68
2023/01/10 11:20:05;;;;;;;4.28;1.60;;;;;;;;;;5021511;28;20045;-68
2023/01/10 11:22:38;;;;;;;4.68;2.00;;;;;;;;;;5020371;28;20062;-68
2023/01/10 11:25:04;;;;;;;2.83;1.10;;;;;;;;;;5036992;28;20588;-68
2023/01/10 11:27:42;;;;;;;2.60;1.27;;;;;;;;;;5021379;28;20053;-68
2023/01/10 11:30:16;;;;;;;3.88;1.13;;;;;;;;;;5021428;28;20465;-69
2023/01/10 11:32:53;;;;;;;2.53;1.10;;;;;;;;;;5021424;28;20041;-68
2023/01/10 11:35:30;;;;;;;1.95;1.33;;;;;;;;;;5019953;28;20410;-68
2023/01/10 11:38:16;;;;;;;3.08;0.98;;;;;;;;;;5021087;28;20080;-68
2023/01/10 11:40:53;;;;;;;2.92;1.17;;;;;;;;;;5020464;28;20081;-68
2023/01/10 11:43:39;;;;;;;3.58;1.10;;;;;;;;;;5020710;28;20061;-68
2023/01/10 11:46:14;;;;;;;4.32;1.38;;;;;;;;;;5020192;28;20490;-68
2023/01/10 11:49:00;;;;;;;3.38;1.17;;;;;;;;;;5021331;28;20049;-68
2023/01/10 11:51:33;;;;;;;5.63;1.20;;;;;;;;;;5034842;28;20045;-68
2023/01/10 11:54:01;;;;;;;2.67;0.90;;;;;;;;;;5021456;28;20049;-69
2023/01/10 11:56:30;;;;;;;4.03;1.10;;;;;;;;;;5019995;28;20383;-68
2023/01/10 11:58:59;;;;;;;4.38;1.10;;;;;;;;;;5020597;28;20055;-68
2023/01/10 12:01:37;;;;;;;3.88;0.85;;;;;;;;;;5019184;28;20067;-68
2023/01/10 12:04:03;;;;;;;4.65;1.02;;;;;;;;;;5021319;28;20049;-68
2023/01/10 12:06:29;;;;;;;5.13;1.15;;;;;;;;;;5020735;28;20530;-68
2023/01/10 12:08:55;;;;;;;1.45;0.82;;;;;;;;;;5020637;28;20045;-68
2023/01/10 12:11:28;;;;;;;1.65;0.80;;;;;;;;;;5019509;28;20049;-68
2023/01/10 12:13:59;;;;;;;6.90;1.30;;;;;;;;;;5020961;28;20041;-68
2023/01/10 12:16:31;;;;;;;1.25;0.75;;;;;;;;;;5021429;28;20041;-68
2023/01/10 12:18:59;;;;;;;3.03;1.00;;;;;;;;;;5019949;28;20041;-68
2023/01/10 12:21:50;;;;;;;1.98;0.80;;;;;;;;;;5019374;28;20052;-68
2023/01/10 12:24:27;;;;;;;2.97;0.98;;;;;;;;;;5020764;28;20042;-68
2023/01/10 12:26:54;;;;;;;1.90;0.82;;;;;;;;;;5019989;28;20075;-69
2023/01/10 12:29:26;;;;;;;1.98;0.85;;;;;;;;;;5018703;28;20060;-68
2023/01/10 12:31:55;;;;;;;3.22;1.00;;;;;;;;;;5019112;28;20498;-67
2023/01/10 12:34:27;;;;;;;2.35;1.10;;;;;;;;;;5020046;28;20049;-68
2023/01/10 12:37:15;;;;;;;2.47;1.17;;;;;;;;;;5019376;28;20184;-67
2023/01/10 12:39:46;;;;;;;6.80;2.08;;;;;;;;;;5042161;28;20614;-67
2023/01/10 12:45:15;;;;;;;1.40;0.85;;;;;;;;;;5014986;28;20056;-69
2023/01/10 12:47:52;;;;;;;3.83;0.80;;;;;;;;;;5017562;28;20460;-68
2023/01/10 12:50:20;;;;;;;2.03;0.90;;;;;;;;;;5014426;28;20052;-68
2023/01/10 12:52:56;;;;;;;0.85;0.73;;;;;;;;;;5016257;28;20041;-67
2023/01/10 12:55:26;;;;;;;1.05;0.60;;;;;;;;;;5018219;28;20429;-68
2023/01/10 12:57:59;;;;;;;2.30;0.70;;;;;;;;;;5018952;28;20076;-68
2023/01/10 13:00:36;;;;;;;3.67;0.88;;;;;;;;;;5016183;28;20064;-68
2023/01/10 13:03:09;;;;;;;3.03;1.17;;;;;;;;;;5018745;28;20501;-68
2023/01/10 13:05:35;;;;;;;4.78;1.58;;;;;;;;;;5037323;28;20044;-68
2023/01/10 13:08:12;;;;;;;6.03;1.40;;;;;;;;;;5019576;28;20033;-68
2023/01/10 13:10:43;;;;;;;2.50;1.20;;;;;;;;;;5025090;28;20048;-68
2023/01/10 13:13:37;;;;;;;6.05;1.35;;;;;;;;;;5020837;28;20468;-68
2023/01/10 13:16:11;;;;;;;6.95;1.50;;;;;;;;;;5018367;28;20049;-68
2023/01/10 13:18:37;;;;;;;2.90;0.80;;;;;;;;;;5018097;28;20041;-68
2023/01/10 13:21:07;;;;;;;10.02;1.48;;;;;;;;;;5028637;28;20548;-68
2023/01/10 13:23:37;;;;;;;3.58;0.80;;;;;;;;;;5015183;28;20164;-68
2023/01/10 13:26:08;;;;;;;1.73;0.90;;;;;;;;;;5016945;28;20041;-68
2023/01/10 13:28:39;;;;;;;1.25;1.02;;;;;;;;;;5018578;28;20049;-68
2023/01/10 13:31:19;;;;;;;1.77;1.00;;;;;;;;;;5018387;28;20045;-68
2023/01/10 13:33:44;;;;;;;3.58;1.70;;;;;;;;;;5045286;28;20666;-68
2023/01/10 13:36:18;;;;;;;2.10;1.20;;;;;;;;;;5019417;28;20946;-68
2023/01/10 13:38:54;;;;;;;4.80;1.30;;;;;;;;;;5019482;28;20044;-68
2023/01/10 13:44:08;;;;;;;1.42;1.10;;;;;;;;;;5019211;28;20126;-68
2023/01/10 13:46:42;;;;;;;4.50;0.93;;;;;;;;;;5019860;28;20136;-68
2023/01/10 13:49:10;;;;;;;4.35;0.68;;;;;;;;;;5018328;28;20791;-68
2023/01/10 13:51:38;;;;;;;2.47;0.70;;;;;;;;;;5033734;28;20076;-68
2023/01/10 13:54:15;;;;;;;2.50;0.80;;;;;;;;;;5018763;28;20490;-68
2023/01/10 13:56:43;;;;;;;1.98;0.95;;;;;;;;;;5017808;28;20169;-68
2023/01/10 14:02:28;;;;;;;3.95;0.95;;;;;;;;;;5017756;28;20124;-68
2023/01/10 14:05:16;;;;;;;7.10;1.10;;;;;;;;;;5018552;28;20529;-69
2023/01/10 14:07:47;;;;;;;2.03;0.80;;;;;;;;;;5032199;28;20144;-69
2023/01/10 14:10:24;;;;;;;0.68;0.68;;;;;;;;;;5017678;28;20112;-68
2023/01/10 14:12:55;;;;;;;3.03;0.80;;;;;;;;;;5018711;28;20045;-68
2023/01/10 14:15:28;;;;;;;3.25;0.80;;;;;;;;;;5018348;28;20050;-68
2023/01/10 14:18:02;;;;;;;5.03;1.15;;;;;;;;;;5018332;28;20045;-69
2023/01/10 14:20:31;;;;;;;2.55;0.82;;;;;;;;;;5018474;28;20099;-68
2023/01/10 14:23:01;;;;;;;4.82;1.10;;;;;;;;;;5020455;28;20053;-68
2023/01/10 14:25:28;;;;;;;5.97;0.90;;;;;;;;;;5020324;28;20053;-68
2023/01/10 14:27:55;;;;;;;3.22;1.05;;;;;;;;;;5022006;28;20049;-68
2023/01/10 14:30:28;;;;;;;5.57;1.13;;;;;;;;;;5035825;28;20045;-70
2023/01/10 14:32:56;;;;;;;3.28;0.90;;;;;;;;;;5020641;28;20156;-69
2023/01/10 14:35:26;;;;;;;7.20;1.20;;;;;;;;;;5017514;28;20192;-69
2023/01/10 14:37:57;;;;;;;4.03;0.82;;;;;;;;;;5021233;28;20045;-69
2023/01/10 14:40:33;;;;;;;3.33;1.15;;;;;;;;;;5019554;28;20071;-69
2023/01/10 14:43:05;;;;;;;4.63;1.70;;;;;;;;;;5020514;28;20498;-69
2023/01/10 14:45:38;;;;;;;5.53;1.60;;;;;;;;;;5019769;28;20053;-69
2023/01/10 14:48:21;;;;;;;1.70;1.17;;;;;;;;;;5020284;28;20050;-69
2023/01/10 14:50:47;;;;;;;2.72;1.40;;;;;;;;;;5018700;28;20049;-69
2023/01/10 14:53:25;;;;;;;3.33;1.38;;;;;;;;;;5017069;28;20080;-69
2023/01/10 14:55:50;;;;;;;12.65;2.25;;;;;;;;;;5020835;28;20049;-69
2023/01/10 14:58:16;;;;;;;4.25;1.40;;;;;;;;;;5022141;28;20067;-69
2023/01/10 15:00:43;;;;;;;8.60;2.53;;;;;;;;;;5020080;28;20140;-69
2023/01/10 15:03:17;;;;;;;3.60;1.35;;;;;;;;;;5020223;28;20045;-68
2023/01/10 15:05:51;;;;;;;4.05;1.27;;;;;;;;;;5020495;28;20046;-69
2023/01/10 15:08:22;;;;;;;7.30;1.90;;;;;;;;;;5020674;28;20177;-68
2023/01/10 15:10:50;;;;;;;3.15;1.10;;;;;;;;;;5021066;28;20041;-69
2023/01/10 15:13:18;;;;;;;2.92;1.10;;;;;;;;;;5019389;28;20597;-69
2023/01/10 15:15:47;;;;;;;2.90;1.10;;;;;;;;;;5020292;28;20648;-70
2023/01/10 15:18:38;;;;;;;3.20;1.10;;;;;;;;;;5014144;28;20119;-69
2023/01/10 15:21:05;;;;;;;7.18;1.40;;;;;;;;;;5020461;28;20123;-69